Big Mound, Illinois
Current Conditions -  °F | °C
As of 10:55 AM on Saturday 22 Nov 2014 (Local Time) from KFWC Reporting Station
Overcast Overcast  
Wind Chill: 57°   Ceiling: 4800
Heat Index: 57°   Visibility: 10mi
Dew Point: 46°   Wind: 13mph
Humidity: 65%   Direction: 190°S
Pressure: 30.14"   Gusts: 29mph
Location:  38.3669°N, 88.3516°W
Report Text: KFWC 221655Z AUTO 19011G25KT 10SM OVC048 14/08 A3014 RMK AO1 T01410075
Loading
Personal Weather Stations






























Interactive Weather Map New forecast layout! Learn more

10-Day Weather Forecast

Advertisements
Track Severe Weather on mobile